createdAt,value
2018-12-31T00:00:08.716Z,47.94
2018-12-31T00:02:37.703Z,48.00
2018-12-31T00:05:07.190Z,48.02
2018-12-31T00:07:35.646Z,48.02
2018-12-31T00:10:04.326Z,48.05
2018-12-31T00:12:32.702Z,48.11
2018-12-31T00:15:01.075Z,48.44
2018-12-31T00:17:29.456Z,47.96
2018-12-31T00:19:57.828Z,48.11
2018-12-31T00:22:26.199Z,48.03
2018-12-31T00:24:54.609Z,48.10
2018-12-31T00:27:22.980Z,48.06
2018-12-31T00:29:51.360Z,48.08
2018-12-31T00:32:19.731Z,48.13
2018-12-31T00:34:48.103Z,48.03
2018-12-31T00:37:16.475Z,47.99
2018-12-31T00:39:44.857Z,48.17
2018-12-31T00:42:13.231Z,48.01
2018-12-31T00:44:41.611Z,48.11
2018-12-31T00:47:09.988Z,48.11
2018-12-31T00:49:38.364Z,48.11
2018-12-31T00:52:07.440Z,48.06
2018-12-31T00:54:35.815Z,48.04
2018-12-31T00:57:04.185Z,48.08
2018-12-31T00:59:32.569Z,48.08
2018-12-31T01:02:00.947Z,48.20
2018-12-31T01:04:29.320Z,48.12
2018-12-31T01:06:57.690Z,48.06
2018-12-31T01:09:26.067Z,48.19
2018-12-31T01:11:54.433Z,48.17
2018-12-31T01:14:22.810Z,48.13
2018-12-31T01:16:51.179Z,48.11
2018-12-31T01:19:19.553Z,48.17
2018-12-31T01:21:47.923Z,48.17
2018-12-31T01:24:16.303Z,48.24
2018-12-31T01:26:44.669Z,48.05
2018-12-31T01:29:13.051Z,48.24
2018-12-31T01:31:41.422Z,48.09
2018-12-31T01:34:09.799Z,48.17
2018-12-31T01:36:38.166Z,48.15
2018-12-31T01:39:07.018Z,48.22
2018-12-31T01:41:35.394Z,48.21
2018-12-31T01:44:03.776Z,48.28
2018-12-31T01:46:32.144Z,48.30
2018-12-31T01:49:00.511Z,48.32
2018-12-31T01:51:28.886Z,48.25
2018-12-31T01:53:57.337Z,48.26
2018-12-31T01:56:25.716Z,48.26
2018-12-31T01:58:54.100Z,48.36
2018-12-31T02:01:22.493Z,48.30
2018-12-31T02:03:50.861Z,48.30
2018-12-31T02:06:19.280Z,48.38
2018-12-31T02:08:47.618Z,48.39
2018-12-31T02:11:15.999Z,48.38
2018-12-31T02:13:44.369Z,48.35
2018-12-31T02:16:12.747Z,48.41
2018-12-31T02:18:41.117Z,48.38
2018-12-31T02:21:09.546Z,48.34
2018-12-31T02:23:38.127Z,48.40
2018-12-31T02:26:06.518Z,48.40
2018-12-31T02:28:34.902Z,48.47
2018-12-31T02:31:03.360Z,48.36
2018-12-31T02:33:31.741Z,48.40
2018-12-31T02:36:00.136Z,48.41
2018-12-31T02:38:28.522Z,48.47
2018-12-31T02:40:56.923Z,48.44
2018-12-31T02:43:25.332Z,48.48
2018-12-31T02:45:53.704Z,48.47
2018-12-31T02:48:22.101Z,48.49
2018-12-31T02:50:50.501Z,48.46
2018-12-31T02:53:18.887Z,48.51
2018-12-31T02:55:47.272Z,48.48
2018-12-31T02:58:15.660Z,48.52
2018-12-31T03:00:44.224Z,48.55
2018-12-31T03:03:12.613Z,48.57
2018-12-31T03:05:40.996Z,48.50
2018-12-31T03:08:09.390Z,48.57
2018-12-31T03:10:38.489Z,48.52
2018-12-31T03:13:06.873Z,48.57
2018-12-31T03:15:35.304Z,48.60
2018-12-31T03:18:03.684Z,48.58
2018-12-31T03:20:32.061Z,48.58
2018-12-31T03:23:00.535Z,48.59
2018-12-31T03:25:28.908Z,48.62
2018-12-31T03:27:57.302Z,48.59
2018-12-31T03:30:25.681Z,48.58
2018-12-31T03:32:54.082Z,48.64
2018-12-31T03:35:22.467Z,48.56
2018-12-31T03:37:50.873Z,48.55
2018-12-31T03:40:19.259Z,48.61
2018-12-31T03:42:47.664Z,48.58
2018-12-31T03:45:16.052Z,48.70
2018-12-31T03:47:44.445Z,48.61
2018-12-31T03:50:12.834Z,48.68
2018-12-31T03:52:41.225Z,48.59
2018-12-31T03:55:09.618Z,48.64
2018-12-31T03:57:38.890Z,48.60
2018-12-31T04:00:07.410Z,48.71
2018-12-31T04:02:35.833Z,48.66
2018-12-31T04:05:04.962Z,48.71
2018-12-31T04:07:33.352Z,48.75
2018-12-31T04:10:01.747Z,48.73
2018-12-31T04:12:30.134Z,48.66
2018-12-31T04:14:58.515Z,48.69
2018-12-31T04:17:26.916Z,48.73
2018-12-31T04:19:55.297Z,48.72
2018-12-31T04:22:23.684Z,48.68
2018-12-31T04:24:52.145Z,48.71
2018-12-31T04:27:20.540Z,48.71
2018-12-31T04:29:48.941Z,48.74
2018-12-31T04:32:17.328Z,48.81
2018-12-31T04:34:45.714Z,48.76
2018-12-31T04:37:14.223Z,48.83
2018-12-31T04:39:42.579Z,48.75
2018-12-31T04:42:10.988Z,48.74
2018-12-31T04:44:39.375Z,48.77
2018-12-31T04:47:07.774Z,48.73
2018-12-31T04:49:36.177Z,48.73
2018-12-31T04:52:04.555Z,48.79
2018-12-31T04:54:32.952Z,48.73
2018-12-31T04:57:01.334Z,48.73
2018-12-31T04:59:29.728Z,48.72
2018-12-31T05:01:58.119Z,48.72
2018-12-31T05:04:26.505Z,48.67
2018-12-31T05:06:54.887Z,48.74
2018-12-31T05:09:23.272Z,48.72
2018-12-31T05:11:51.661Z,48.81
2018-12-31T05:14:20.059Z,48.71
2018-12-31T05:16:48.506Z,48.73
2018-12-31T05:19:16.902Z,48.71
2018-12-31T05:21:45.290Z,48.75
2018-12-31T05:24:13.690Z,48.76
2018-12-31T05:26:42.080Z,48.71
2018-12-31T05:29:10.474Z,48.74
2018-12-31T05:31:39.817Z,48.76
2018-12-31T05:34:08.188Z,48.74
2018-12-31T05:36:36.568Z,48.72
2018-12-31T05:39:06.504Z,48.73
2018-12-31T05:41:34.894Z,48.66
2018-12-31T05:44:03.289Z,48.74
2018-12-31T05:46:31.670Z,48.71
2018-12-31T05:49:00.066Z,48.78
2018-12-31T05:51:28.454Z,48.79
2018-12-31T05:53:56.858Z,48.74
2018-12-31T05:56:25.225Z,48.81
2018-12-31T05:58:53.614Z,48.75
2018-12-31T06:01:22.002Z,48.74
2018-12-31T06:03:50.393Z,48.63
2018-12-31T06:06:18.774Z,48.76
2018-12-31T06:08:47.165Z,48.82
2018-12-31T06:11:15.557Z,48.84
2018-12-31T06:13:43.963Z,48.79
2018-12-31T06:16:12.338Z,48.83
2018-12-31T06:18:40.718Z,48.89
2018-12-31T06:21:10.151Z,48.72
2018-12-31T06:23:38.536Z,48.72
2018-12-31T06:26:06.933Z,48.83
2018-12-31T06:28:35.323Z,48.82
2018-12-31T06:31:03.721Z,49.12
2018-12-31T06:33:32.139Z,49.12
2018-12-31T06:36:00.546Z,48.89
2018-12-31T06:38:28.938Z,48.81
2018-12-31T06:40:57.339Z,48.87
2018-12-31T06:43:25.714Z,48.84
2018-12-31T06:45:54.115Z,48.86
2018-12-31T06:48:22.503Z,48.83
2018-12-31T06:50:50.889Z,48.91
2018-12-31T06:53:19.277Z,48.91
2018-12-31T06:55:47.673Z,48.87
2018-12-31T06:58:16.055Z,48.91
2018-12-31T07:00:44.452Z,48.97
2018-12-31T07:03:12.841Z,48.89
2018-12-31T07:05:41.233Z,48.88
2018-12-31T07:08:10.234Z,48.96
2018-12-31T07:10:38.620Z,48.88
2018-12-31T07:13:07.017Z,48.97
2018-12-31T07:15:35.414Z,49.00
2018-12-31T07:18:03.807Z,49.01
2018-12-31T07:20:32.201Z,48.89
2018-12-31T07:23:00.576Z,48.92
2018-12-31T07:25:28.974Z,48.95
2018-12-31T07:27:57.361Z,48.95
2018-12-31T07:30:25.759Z,48.96
2018-12-31T07:32:54.145Z,48.89
2018-12-31T07:35:22.554Z,49.03
2018-12-31T07:37:50.918Z,48.84
2018-12-31T07:40:19.305Z,48.95
2018-12-31T07:42:47.692Z,49.04
2018-12-31T07:45:16.082Z,48.91
2018-12-31T07:47:44.477Z,49.16
2018-12-31T07:50:12.867Z,49.37
2018-12-31T07:52:41.271Z,49.43
2018-12-31T07:55:10.576Z,49.71
2018-12-31T07:57:38.969Z,49.83
2018-12-31T08:00:08.394Z,49.78
2018-12-31T08:02:36.799Z,49.87
2018-12-31T08:05:05.256Z,49.86
2018-12-31T08:07:33.636Z,49.82
2018-12-31T08:10:02.021Z,49.83
2018-12-31T08:12:30.418Z,49.90
2018-12-31T08:14:58.803Z,49.81
2018-12-31T08:17:27.198Z,49.86
2018-12-31T08:19:55.656Z,49.86
2018-12-31T08:22:24.046Z,49.82
2018-12-31T08:24:52.424Z,49.80
2018-12-31T08:27:20.821Z,49.80
2018-12-31T08:29:49.218Z,49.71
2018-12-31T08:32:17.599Z,49.81
2018-12-31T08:34:45.988Z,49.73
2018-12-31T08:37:14.392Z,49.74
2018-12-31T08:39:42.782Z,49.76
2018-12-31T08:42:11.176Z,49.67
2018-12-31T08:44:40.852Z,49.70
2018-12-31T08:47:09.345Z,49.69
2018-12-31T08:49:37.734Z,49.65
2018-12-31T08:52:06.133Z,49.71
2018-12-31T08:54:34.516Z,49.59
2018-12-31T08:57:02.908Z,49.60
2018-12-31T08:59:31.297Z,49.59
2018-12-31T09:02:01.510Z,49.59
2018-12-31T09:04:29.961Z,49.58
2018-12-31T09:06:58.344Z,49.57
2018-12-31T09:09:26.738Z,49.53
2018-12-31T09:11:55.109Z,49.55
2018-12-31T09:14:23.509Z,49.55
2018-12-31T09:16:51.880Z,49.58
2018-12-31T09:19:20.272Z,49.56
2018-12-31T09:21:48.723Z,49.49
2018-12-31T09:24:17.117Z,49.43
2018-12-31T09:26:45.508Z,49.45
2018-12-31T09:29:13.907Z,49.48
2018-12-31T09:31:42.282Z,49.55
2018-12-31T09:34:11.355Z,49.61
2018-12-31T09:36:39.742Z,49.65
2018-12-31T09:39:08.149Z,49.62
2018-12-31T09:41:36.529Z,49.56
2018-12-31T09:44:04.924Z,49.63
2018-12-31T09:46:33.316Z,49.55
2018-12-31T09:49:01.719Z,49.55
2018-12-31T09:51:30.103Z,49.56
2018-12-31T09:53:58.503Z,49.56
2018-12-31T09:56:26.885Z,49.56
2018-12-31T09:58:55.287Z,49.61
2018-12-31T10:01:23.682Z,49.49
2018-12-31T10:03:52.079Z,49.55
2018-12-31T10:06:20.471Z,49.55
2018-12-31T10:08:49.337Z,49.54
2018-12-31T10:11:17.943Z,49.56
2018-12-31T10:13:46.343Z,49.64
2018-12-31T10:16:14.728Z,49.62
2018-12-31T10:18:43.126Z,49.54
2018-12-31T10:21:11.674Z,49.50
2018-12-31T10:23:40.069Z,49.48
2018-12-31T10:26:08.460Z,49.53
2018-12-31T10:28:37.675Z,49.54
2018-12-31T10:31:06.062Z,49.51
2018-12-31T10:33:34.457Z,49.57
2018-12-31T10:36:02.834Z,49.53
2018-12-31T10:38:31.227Z,49.52
2018-12-31T10:40:59.626Z,49.50
2018-12-31T10:43:28.014Z,49.46
2018-12-31T10:45:56.411Z,49.54
2018-12-31T10:48:24.785Z,49.54
2018-12-31T10:50:53.197Z,49.52
2018-12-31T10:53:21.589Z,49.48
2018-12-31T10:55:49.978Z,49.46
2018-12-31T10:58:18.355Z,49.52
2018-12-31T11:00:46.750Z,49.46
2018-12-31T11:03:15.124Z,49.73
2018-12-31T11:05:43.531Z,49.74
2018-12-31T11:08:12.038Z,49.70
2018-12-31T11:10:40.506Z,49.64
2018-12-31T11:13:08.824Z,49.58
2018-12-31T11:15:37.210Z,49.62
2018-12-31T11:18:05.585Z,49.65
2018-12-31T11:20:33.986Z,49.63
2018-12-31T11:23:02.374Z,49.65
2018-12-31T11:25:30.772Z,49.67
2018-12-31T11:27:59.152Z,49.59
2018-12-31T11:30:27.548Z,49.63
2018-12-31T11:32:55.929Z,49.62
2018-12-31T11:35:24.337Z,49.65
2018-12-31T11:37:52.722Z,49.60
2018-12-31T11:40:21.117Z,49.61
2018-12-31T11:42:49.504Z,49.56
2018-12-31T11:45:17.902Z,49.64
2018-12-31T11:47:46.288Z,49.62
2018-12-31T11:50:14.683Z,49.69
2018-12-31T11:52:43.080Z,49.59
2018-12-31T11:55:12.391Z,49.59
2018-12-31T11:57:40.851Z,49.58
2018-12-31T12:00:10.213Z,49.60
2018-12-31T12:02:38.605Z,49.57
2018-12-31T12:05:07.005Z,49.63
2018-12-31T12:07:35.391Z,49.64
2018-12-31T12:10:03.953Z,49.60
2018-12-31T12:12:32.357Z,49.62
2018-12-31T12:15:00.745Z,49.62
2018-12-31T12:17:29.138Z,49.58
2018-12-31T12:19:57.581Z,49.53
2018-12-31T12:22:25.977Z,49.56
2018-12-31T12:24:54.359Z,49.57
2018-12-31T12:27:22.758Z,49.53
2018-12-31T12:29:51.147Z,49.57
2018-12-31T12:32:19.546Z,49.57
2018-12-31T12:34:47.927Z,49.50
2018-12-31T12:37:16.325Z,49.50
2018-12-31T12:39:44.702Z,49.47
2018-12-31T12:42:13.097Z,49.57
2018-12-31T12:44:41.734Z,49.61
2018-12-31T12:47:10.124Z,49.48
2018-12-31T12:49:38.511Z,49.49
2018-12-31T12:52:06.906Z,49.65
2018-12-31T12:54:35.291Z,49.79
2018-12-31T12:57:03.700Z,49.86
2018-12-31T12:59:32.087Z,49.86
2018-12-31T13:02:00.825Z,49.86
2018-12-31T13:04:29.222Z,49.85
2018-12-31T13:06:57.613Z,49.81
2018-12-31T13:09:26.017Z,49.85
2018-12-31T13:11:54.482Z,49.92
2018-12-31T13:14:23.617Z,49.88
2018-12-31T13:16:52.207Z,49.89
2018-12-31T13:19:20.751Z,49.89
2018-12-31T13:21:49.152Z,49.84
2018-12-31T13:24:18.906Z,49.89
2018-12-31T13:26:47.714Z,49.87
2018-12-31T13:29:16.108Z,49.89
2018-12-31T13:31:44.491Z,49.84
2018-12-31T13:34:13.175Z,49.87
2018-12-31T13:36:41.561Z,49.90
2018-12-31T13:39:09.961Z,49.85
2018-12-31T13:41:38.425Z,49.88
2018-12-31T13:44:06.821Z,50.17
2018-12-31T13:46:35.327Z,50.21
2018-12-31T13:49:03.791Z,50.21
2018-12-31T13:51:32.181Z,50.20
2018-12-31T13:54:00.842Z,50.35
2018-12-31T13:56:29.223Z,50.36
2018-12-31T13:58:57.625Z,50.37
2018-12-31T14:01:26.023Z,50.32
2018-12-31T14:03:54.420Z,50.26
2018-12-31T14:06:22.828Z,50.30
2018-12-31T14:08:51.208Z,50.38
2018-12-31T14:11:19.597Z,50.42
2018-12-31T14:13:47.995Z,50.45
2018-12-31T14:16:16.382Z,50.21
2018-12-31T14:18:44.780Z,50.13
2018-12-31T14:21:13.531Z,50.04
2018-12-31T14:23:42.046Z,50.03
2018-12-31T14:26:10.431Z,50.02
2018-12-31T14:28:38.885Z,49.94
2018-12-31T14:31:07.540Z,50.03
2018-12-31T14:33:35.944Z,50.00
2018-12-31T14:36:04.317Z,50.06
2018-12-31T14:38:32.708Z,49.95
2018-12-31T14:41:01.104Z,50.06
2018-12-31T14:43:29.778Z,50.13
2018-12-31T14:45:58.168Z,50.05
2018-12-31T14:48:26.554Z,50.11
2018-12-31T14:50:55.026Z,50.17
2018-12-31T14:53:23.421Z,50.07
2018-12-31T14:55:51.824Z,49.97
2018-12-31T14:58:20.214Z,50.01
2018-12-31T15:00:48.604Z,50.06
2018-12-31T15:03:16.990Z,50.06
2018-12-31T15:05:45.453Z,50.05
2018-12-31T15:08:14.104Z,50.11
2018-12-31T15:10:42.498Z,50.08
2018-12-31T15:13:10.899Z,50.11
2018-12-31T15:15:39.304Z,50.07
2018-12-31T15:18:07.696Z,50.10
2018-12-31T15:20:36.098Z,50.13
2018-12-31T15:23:04.709Z,50.08
2018-12-31T15:25:33.100Z,49.99
2018-12-31T15:28:01.488Z,50.08
2018-12-31T15:30:29.887Z,50.06
2018-12-31T15:32:58.474Z,50.09
2018-12-31T15:35:27.186Z,50.08
2018-12-31T15:37:55.590Z,50.09
2018-12-31T15:40:24.281Z,50.07
2018-12-31T15:42:52.667Z,50.14
2018-12-31T15:45:21.071Z,50.09
2018-12-31T15:47:49.731Z,50.07
2018-12-31T15:50:18.199Z,50.12
2018-12-31T15:52:46.592Z,50.27
2018-12-31T15:55:15.113Z,50.29
2018-12-31T15:57:44.383Z,50.51
2018-12-31T16:00:13.035Z,50.61
2018-12-31T16:02:41.482Z,50.87
2018-12-31T16:05:09.883Z,51.36
2018-12-31T16:07:45.331Z,51.75
2018-12-31T16:10:08.541Z,51.75
2018-12-31T16:12:36.923Z,51.39
2018-12-31T16:15:06.669Z,51.40
2018-12-31T16:17:35.057Z,51.41
2018-12-31T16:20:04.107Z,51.46
2018-12-31T16:22:32.512Z,51.37
2018-12-31T16:25:00.896Z,51.42
2018-12-31T16:27:29.311Z,51.46
2018-12-31T16:29:57.688Z,51.36
2018-12-31T16:32:26.101Z,51.33
2018-12-31T16:34:54.772Z,51.52
2018-12-31T16:37:23.253Z,51.54
2018-12-31T16:39:52.061Z,51.40
2018-12-31T16:42:20.478Z,51.25
2018-12-31T16:44:48.870Z,51.44
2018-12-31T16:47:17.277Z,51.52
2018-12-31T16:49:45.676Z,51.47
2018-12-31T16:52:14.767Z,51.50
2018-12-31T16:54:43.162Z,51.60
2018-12-31T16:57:11.620Z,51.55
2018-12-31T16:59:39.947Z,51.88
2018-12-31T17:02:08.349Z,51.34
2018-12-31T17:04:36.732Z,51.68
2018-12-31T17:07:05.209Z,51.69
2018-12-31T17:09:33.601Z,51.66
2018-12-31T17:12:01.999Z,51.60
2018-12-31T17:14:30.401Z,51.44
2018-12-31T17:16:58.808Z,51.58
2018-12-31T17:19:27.481Z,51.47
2018-12-31T17:21:55.876Z,51.05
2018-12-31T17:24:24.334Z,50.61
2018-12-31T17:26:52.742Z,50.51
2018-12-31T17:29:21.138Z,50.71
2018-12-31T17:31:49.551Z,51.14
2018-12-31T17:34:17.948Z,51.37
2018-12-31T17:36:46.348Z,51.79
2018-12-31T17:39:15.147Z,51.40
2018-12-31T17:41:43.551Z,51.23
2018-12-31T17:44:12.100Z,50.86
2018-12-31T17:46:40.541Z,51.13
2018-12-31T17:49:08.939Z,51.48
2018-12-31T17:51:37.331Z,51.79
2018-12-31T17:54:05.743Z,51.93
2018-12-31T17:56:34.132Z,51.91
2018-12-31T17:59:02.811Z,51.67
2018-12-31T18:01:31.196Z,51.33
2018-12-31T18:03:59.586Z,51.41
2018-12-31T18:06:28.067Z,50.83
2018-12-31T18:08:56.476Z,49.88
2018-12-31T18:11:24.872Z,50.43
2018-12-31T18:13:53.268Z,50.60
2018-12-31T18:16:21.666Z,50.30
2018-12-31T18:18:50.078Z,50.16
2018-12-31T18:21:18.536Z,50.15
2018-12-31T18:23:46.947Z,49.98
2018-12-31T18:26:15.547Z,49.62
2018-12-31T18:28:43.954Z,48.99
2018-12-31T18:31:12.348Z,49.49
2018-12-31T18:33:40.761Z,49.40
2018-12-31T18:36:09.158Z,49.39
2018-12-31T18:38:37.747Z,49.42
2018-12-31T18:41:06.132Z,49.99
2018-12-31T18:43:34.529Z,49.63
2018-12-31T18:46:02.961Z,48.18
2018-12-31T18:48:31.373Z,46.86
2018-12-31T18:51:00.125Z,46.86
2018-12-31T18:53:28.527Z,47.11
2018-12-31T18:55:56.909Z,47.13
2018-12-31T18:58:25.319Z,47.24
2018-12-31T19:00:53.716Z,47.07
2018-12-31T19:03:22.111Z,46.83
2018-12-31T19:05:50.491Z,46.84
2018-12-31T19:08:18.894Z,46.58
2018-12-31T19:10:47.291Z,46.34
2018-12-31T19:13:15.902Z,46.40
2018-12-31T19:15:44.349Z,46.70
2018-12-31T19:18:13.035Z,46.71
2018-12-31T19:20:41.417Z,46.72
2018-12-31T19:23:09.822Z,46.80
2018-12-31T19:25:38.224Z,46.72
2018-12-31T19:28:06.632Z,47.07
2018-12-31T19:30:35.030Z,46.86
2018-12-31T19:33:03.417Z,46.48
2018-12-31T19:35:31.906Z,46.34
2018-12-31T19:38:00.302Z,45.68
2018-12-31T19:40:28.708Z,45.51
2018-12-31T19:42:57.103Z,45.27
2018-12-31T19:45:25.515Z,44.87
2018-12-31T19:47:55.702Z,44.85
2018-12-31T19:50:24.190Z,44.73
2018-12-31T19:52:52.597Z,44.71
2018-12-31T19:55:21.008Z,44.51
2018-12-31T19:57:49.572Z,44.63
2018-12-31T20:00:18.051Z,44.44
2018-12-31T20:02:46.452Z,44.35
2018-12-31T20:05:14.957Z,44.37
2018-12-31T20:07:43.332Z,44.21
2018-12-31T20:10:11.739Z,44.15
2018-12-31T20:12:40.120Z,44.45
2018-12-31T20:15:08.520Z,44.80
2018-12-31T20:17:36.926Z,44.91
2018-12-31T20:20:05.699Z,44.94
2018-12-31T20:22:34.091Z,44.94
2018-12-31T20:25:02.997Z,45.42
2018-12-31T20:27:31.399Z,45.15
2018-12-31T20:29:59.802Z,45.38
2018-12-31T20:32:28.199Z,44.33
2018-12-31T20:34:56.595Z,43.58
2018-12-31T20:37:24.995Z,43.34
2018-12-31T20:39:53.397Z,43.28
2018-12-31T20:42:21.783Z,43.28
2018-12-31T20:44:50.182Z,43.25
2018-12-31T20:47:18.583Z,42.95
2018-12-31T20:49:47.027Z,42.95
2018-12-31T20:52:15.505Z,42.92
2018-12-31T20:54:43.889Z,42.75
2018-12-31T20:57:12.323Z,42.54
2018-12-31T20:59:40.714Z,42.85
2018-12-31T21:02:09.132Z,42.21
2018-12-31T21:04:37.531Z,42.05
2018-12-31T21:07:06.219Z,42.05
2018-12-31T21:09:34.862Z,42.11
2018-12-31T21:12:03.267Z,42.11
2018-12-31T21:14:31.663Z,42.08
2018-12-31T21:17:00.073Z,42.16
2018-12-31T21:19:28.461Z,42.19
2018-12-31T21:21:56.920Z,42.28
2018-12-31T21:24:25.270Z,42.24
2018-12-31T21:26:53.661Z,42.24
2018-12-31T21:29:22.058Z,42.19
2018-12-31T21:31:50.464Z,42.22
2018-12-31T21:34:19.038Z,42.08
2018-12-31T21:36:47.439Z,42.18
2018-12-31T21:39:15.837Z,41.89
2018-12-31T21:41:44.230Z,42.00
2018-12-31T21:44:12.628Z,42.06
2018-12-31T21:46:41.039Z,42.27
2018-12-31T21:49:09.433Z,42.44
2018-12-31T21:51:37.853Z,42.67
2018-12-31T21:54:06.258Z,42.64
2018-12-31T21:56:34.652Z,42.72
2018-12-31T21:59:03.048Z,43.27
2018-12-31T22:01:31.643Z,42.77
2018-12-31T22:04:00.041Z,42.37
2018-12-31T22:06:28.439Z,42.47
2018-12-31T22:08:56.834Z,43.03
2018-12-31T22:11:25.223Z,41.40
2018-12-31T22:13:53.624Z,41.26
2018-12-31T22:16:22.025Z,39.08
2018-12-31T22:18:50.437Z,36.79
2018-12-31T22:21:20.193Z,36.00
2018-12-31T22:23:48.507Z,37.52
2018-12-31T22:26:17.399Z,38.29
2018-12-31T22:28:45.809Z,38.52
2018-12-31T22:31:14.208Z,39.07
2018-12-31T22:33:42.601Z,39.78
2018-12-31T22:36:11.002Z,40.36
2018-12-31T22:38:39.400Z,40.83
2018-12-31T22:41:08.164Z,40.78
2018-12-31T22:43:36.571Z,41.23
2018-12-31T22:46:04.970Z,41.08
2018-12-31T22:48:33.384Z,41.22
2018-12-31T22:51:01.789Z,41.31
2018-12-31T22:53:30.198Z,41.21
2018-12-31T22:55:58.594Z,41.43
2018-12-31T22:58:27.004Z,41.18
2018-12-31T23:00:55.543Z,41.40
2018-12-31T23:03:23.946Z,41.94
2018-12-31T23:05:52.343Z,41.47
2018-12-31T23:08:20.756Z,40.93
2018-12-31T23:10:49.149Z,40.52
2018-12-31T23:13:17.746Z,40.40
2018-12-31T23:15:47.398Z,40.40
2018-12-31T23:18:15.882Z,40.28
2018-12-31T23:20:44.627Z,40.32
2018-12-31T23:23:13.029Z,40.56
2018-12-31T23:25:41.410Z,40.83
2018-12-31T23:28:09.816Z,40.50
2018-12-31T23:30:38.206Z,40.10
2018-12-31T23:33:06.611Z,40.00
2018-12-31T23:35:35.011Z,40.40
2018-12-31T23:38:03.401Z,40.37
2018-12-31T23:40:31.791Z,40.39
2018-12-31T23:43:06.320Z,40.46
2018-12-31T23:45:30.329Z,40.36
2018-12-31T23:47:58.720Z,40.40
2018-12-31T23:50:27.124Z,40.55
2018-12-31T23:52:55.520Z,40.24
2018-12-31T23:55:23.932Z,40.51
2018-12-31T23:57:52.321Z,40.39
